KAIK/AIK METAR and TAF weather

Enter ICAO airport designator
Station Type Date Time Source
KAIK METAR 2019/08/24 09:15 UTC NOAA

KAIK 240915Z AUTO 00000KT 7SM OVC002 21/21 A3004 RMK AO2


Station Type Date Time Source
KAIK Decoded METAR 2019/08/24 09:15 UTC NOAA

Station name not available
Aug 24, 2019 - 05:15 AM EDT / 2019.08.24 0915 UTC
Wind: Calm:0
Visibility: 7 mile(s):0
Sky conditions: overcast
Temperature: 69 F (21 C)
Dew Point: 69 F (21 C)
Relative Humidity: 100%
Pressure (altimeter): 30.04 in. Hg (1017 hPa)
ob: KAIK 240915Z AUTO 00000KT 7SM OVC002 21/21 A3004 RMK AO2
cycle: 9

Station Type Date Time Source
KAIK TAF UTC NOAA

Error!

Example: see airport list